Aérodrome :
LOGIN :

S'inscrire | Disclaimer

   EN    FR    IT 

 










Légende :    VFR   VFR Marginal   IFR   IFR Intensif   IFR Très Intensif
Visi : 
Plafond : 
>= 8 km
>= 3000ft
5 à 8 km
1000 à 3000 ft
1500m à 5 km
500 à 1000 ft
800 à 1500m
200 à 500 ft
< 800m
< 200 ft
Symboles :   Orages  Brouillard  Fortes neiges  Fortes précipitations  Vent > 20 kt
SIGMETs :   Divers  Orages  Givrage  Turbulence  Onde Orograph.  Cendres Volcan.






- Altitude de l'aérodrome : 1465 ft


LSMP - Payerne

DERNIER METAR :
  • 121820Z AUTO 22003KT 190V250 9999NDV FEW120 01/M02 Q0999 RMK

METARs EXPIRÉS :
  • 121750Z AUTO 21003KT 9999NDV SCT120 02/M02 Q0999 RMK
  • 121720Z AUTO VRB02KT 9999NDV FEW100 02/M02 Q1000 RMK
  • 121650Z AUTO 20004KT 9999NDV OVC130 03/M01 Q1001 RMK
  • 121620Z AUTO 22004KT 190V250 9999NDV ////// 03/M01 Q1002 RMK MIS
  • 121550Z AUTO 23004KT 210V330 9999NDV OVC130 03/M02 Q1002 RMK

Prévision TAF périmée.



MET'MAP, la Météo Aéronautique d'un coup d'oeil ! - Copyright ORBIFLY Décembre 2007 - Disclaimer

ORBIFLY MET'MAP TEAM :

Programmation & Développement : Alexandra Zaïnal
Sur une idée originale de : Baudouin d'Aumeries
Assistance à la programmation : Marc-Olivier Méhu
Soutien technique & logistique : Manuel Goepfert

Contact : metmap@orbifly.com




SOURCES & CREDITS :

   NOAA